Date,TemperatureHighF,TemperatureAvgF,TemperatureLowF,DewpointHighF,DewpointAvgF,DewpointLowF,HumidityHigh,HumidityAvg,HumidityLow,PressureMaxIn,PressureMinIn,WindSpeedMaxMPH,WindSpeedAvgMPH,GustSpeedMaxMPH,PrecipitationSumIn
2013-2-1,17.6,10.6,4.6,9.0,4.3,-1.0,82,75,66,30.43,30.10,13,3,22,0.00
2013-2-2,27.5,22.4,14.3,24.0,19.0,9.0,93,86,79,30.31,30.01,9,2,10,0.00
2013-2-3,23.7,18.0,12.1,20.0,14.1,9.0,90,84,76,30.12,29.97,9,2,13,0.00
2013-2-4,35.8,27.3,16.4,32.0,22.9,14.0,95,83,69,30.11,29.83,6,1,10,0.02
2013-2-5,34.4,28.4,17.1,32.0,25.3,16.0,95,88,76,30.03,29.84,6,1,10,0.00
2013-2-6,38.5,31.9,26.4,30.0,25.2,22.0,91,77,62,30.28,30.04,5,1,15,0.00
2013-2-7,53.2,40.7,30.3,41.0,33.1,27.0,94,76,53,30.21,29.78,7,1,9,0.18
2013-2-8,42.9,33.3,22.9,42.0,29.6,20.0,95,86,75,30.35,29.79,9,2,17,0.05
2013-2-9,39.2,27.9,16.2,28.0,22.0,15.0,96,80,59,30.44,30.21,5,1,11,0.00
2013-2-10,50.0,42.4,31.2,48.0,34.8,24.0,95,75,61,30.21,29.70,10,3,18,0.01
2013-2-11,50.2,39.6,30.7,48.0,33.0,27.0,94,78,66,30.02,29.66,14,5,22,0.00
2013-2-12,44.4,33.7,26.9,32.0,27.7,25.0,94,80,59,30.13,29.95,7,2,10,0.00
2013-2-13,42.2,32.1,24.2,31.0,27.1,22.0,94,82,64,29.95,29.78,6,1,7,0.00
2013-2-14,48.8,38.7,32.1,40.0,33.8,30.0,94,83,67,29.98,29.77,9,3,17,0.00
2013-2-15,36.4,29.2,16.4,31.0,25.6,15.0,96,86,72,30.17,29.96,6,1,15,0.00
2013-2-16,23.8,20.8,15.4,20.0,15.1,11.0,94,79,60,30.16,30.09,13,2,15,0.00
2013-2-17,31.1,20.4,9.9,18.0,12.1,7.0,92,72,47,30.26,30.16,3,1,9,0.00
2013-2-18,56.8,41.0,23.8,42.0,29.3,13.0,91,64,53,30.19,29.61,16,4,19,0.09
2013-2-19,45.1,26.8,20.6,43.0,22.3,14.0,94,83,74,30.12,29.56,16,6,25,0.02
2013-2-20,24.6,18.7,11.7,16.0,12.2,6.0,87,76,67,30.35,30.12,10,3,16,0.00
2013-2-21,29.2,24.7,19.6,24.0,19.4,16.0,88,80,72,30.38,30.07,15,3,17,0.00
2013-2-22,36.5,32.8,26.4,36.0,30.9,24.0,96,92,86,30.09,29.88,9,2,13,0.13
2013-2-23,36.5,30.2,24.0,29.0,24.9,21.0,91,81,70,30.00,29.93,5,1,10,0.01
2013-2-24,38.8,29.5,21.7,28.0,23.5,19.0,94,79,62,30.16,29.98,8,1,12,0.00
2013-2-25,44.3,33.1,20.8,30.0,25.6,19.0,95,76,54,30.19,29.94,8,2,14,0.00
2013-2-26,41.2,36.4,33.1,40.0,33.4,27.0,97,89,74,29.92,29.39,12,3,18,0.94
2013-2-27,41.3,35.4,31.3,40.0,33.8,30.0,96,94,89,29.67,29.46,5,2,13,0.08
2013-2-28,38.5,34.1,31.4,34.0,32.2,30.0,96,92,84,29.97,29.65,7,1,13,0.11